METAR LSZS 061820Z AUTO 20003KT CAVOK M10/M12 Q1019=